sensor_id;sensor_type;location;lat;lon;timestamp;temperature;humidity
17891;DHT22;9071;48.220;14.480;2023-06-10T00:04:04;14.10;99.90
17891;DHT22;9071;48.220;14.480;2023-06-10T00:09:06;14.10;99.90
17891;DHT22;9071;48.220;14.480;2023-06-10T00:14:12;14.10;99.90
17891;DHT22;9071;48.220;14.480;2023-06-10T00:19:14;14.20;99.90
17891;DHT22;9071;48.220;14.480;2023-06-10T00:24:17;14.10;99.90
17891;DHT22;9071;48.220;14.480;2023-06-10T00:29:20;14.00;99.90
17891;DHT22;9071;48.220;14.480;2023-06-10T00:34:22;14.10;99.90
17891;DHT22;9071;48.220;14.480;2023-06-10T00:39:24;14.10;99.90
17891;DHT22;9071;48.220;14.480;2023-06-10T00:44:28;14.00;99.90
17891;DHT22;9071;48.220;14.480;2023-06-10T00:49:30;13.90;99.90
17891;DHT22;9071;48.220;14.480;2023-06-10T00:54:32;13.80;99.90
17891;DHT22;9071;48.220;14.480;2023-06-10T00:59:36;13.70;99.90
17891;DHT22;9071;48.220;14.480;2023-06-10T01:04:38;13.80;99.90
17891;DHT22;9071;48.220;14.480;2023-06-10T01:09:46;13.80;99.90
17891;DHT22;9071;48.220;14.480;2023-06-10T01:14:53;14.00;99.90
17891;DHT22;9071;48.220;14.480;2023-06-10T01:19:56;14.00;99.90
17891;DHT22;9071;48.220;14.480;2023-06-10T01:25:00;14.00;99.90
17891;DHT22;9071;48.220;14.480;2023-06-10T01:30:06;14.00;99.90
17891;DHT22;9071;48.220;14.480;2023-06-10T01:35:12;14.00;99.90
17891;DHT22;9071;48.220;14.480;2023-06-10T01:40:16;14.00;99.90
17891;DHT22;9071;48.220;14.480;2023-06-10T01:45:18;13.90;99.90
17891;DHT22;9071;48.220;14.480;2023-06-10T01:50:21;13.90;99.90
17891;DHT22;9071;48.220;14.480;2023-06-10T01:55:24;13.80;99.90
17891;DHT22;9071;48.220;14.480;2023-06-10T02:00:26;13.70;99.90
17891;DHT22;9071;48.220;14.480;2023-06-10T02:05:28;13.60;99.90
17891;DHT22;9071;48.220;14.480;2023-06-10T02:10:32;13.50;99.90
17891;DHT22;9071;48.220;14.480;2023-06-10T02:15:34;13.50;99.90
17891;DHT22;9071;48.220;14.480;2023-06-10T02:20:36;13.50;99.90
17891;DHT22;9071;48.220;14.480;2023-06-10T02:25:40;13.40;99.90
17891;DHT22;9071;48.220;14.480;2023-06-10T02:30:42;13.30;99.90
17891;DHT22;9071;48.220;14.480;2023-06-10T02:35:44;13.30;99.90
17891;DHT22;9071;48.220;14.480;2023-06-10T02:40:48;13.20;99.90
17891;DHT22;9071;48.220;14.480;2023-06-10T02:45:50;13.20;99.90
17891;DHT22;9071;48.220;14.480;2023-06-10T02:50:52;13.20;99.90
17891;DHT22;9071;48.220;14.480;2023-06-10T02:55:55;13.30;99.90
17891;DHT22;9071;48.220;14.480;2023-06-10T03:00:58;13.40;99.90
17891;DHT22;9071;48.220;14.480;2023-06-10T03:06:01;13.50;99.90
17891;DHT22;9071;48.220;14.480;2023-06-10T03:11:04;13.30;99.90
17891;DHT22;9071;48.220;14.480;2023-06-10T03:16:06;13.30;99.90
17891;DHT22;9071;48.220;14.480;2023-06-10T03:21:09;13.30;99.90
17891;DHT22;9071;48.220;14.480;2023-06-10T03:26:12;13.30;99.90
17891;DHT22;9071;48.220;14.480;2023-06-10T03:31:16;13.20;99.90
17891;DHT22;9071;48.220;14.480;2023-06-10T03:36:18;13.30;99.90
17891;DHT22;9071;48.220;14.480;2023-06-10T03:41:22;13.30;99.90
17891;DHT22;9071;48.220;14.480;2023-06-10T03:46:24;13.50;99.90
17891;DHT22;9071;48.220;14.480;2023-06-10T03:51:26;13.70;99.90
17891;DHT22;9071;48.220;14.480;2023-06-10T03:56:29;13.90;99.90
17891;DHT22;9071;48.220;14.480;2023-06-10T04:01:31;14.20;99.90
17891;DHT22;9071;48.220;14.480;2023-06-10T04:06:34;14.50;99.90
17891;DHT22;9071;48.220;14.480;2023-06-10T04:11:37;14.70;99.90
17891;DHT22;9071;48.220;14.480;2023-06-10T04:16:39;14.90;99.90
17891;DHT22;9071;48.220;14.480;2023-06-10T04:21:43;15.30;99.90
17891;DHT22;9071;48.220;14.480;2023-06-10T04:26:46;15.50;99.90
17891;DHT22;9071;48.220;14.480;2023-06-10T04:31:48;15.70;99.90
17891;DHT22;9071;48.220;14.480;2023-06-10T04:36:51;15.80;99.90
17891;DHT22;9071;48.220;14.480;2023-06-10T04:41:54;15.90;99.90
17891;DHT22;9071;48.220;14.480;2023-06-10T04:46:56;16.10;99.90
17891;DHT22;9071;48.220;14.480;2023-06-10T04:51:58;16.30;99.90
17891;DHT22;9071;48.220;14.480;2023-06-10T04:57:02;16.40;99.90
17891;DHT22;9071;48.220;14.480;2023-06-10T05:02:05;16.80;99.90
17891;DHT22;9071;48.220;14.480;2023-06-10T05:07:07;17.20;99.90
17891;DHT22;9071;48.220;14.480;2023-06-10T05:12:11;17.30;99.90
17891;DHT22;9071;48.220;14.480;2023-06-10T05:17:13;17.50;99.90
17891;DHT22;9071;48.220;14.480;2023-06-10T05:22:15;17.60;99.90
17891;DHT22;9071;48.220;14.480;2023-06-10T05:27:20;17.60;99.90
17891;DHT22;9071;48.220;14.480;2023-06-10T05:32:22;17.70;99.90
17891;DHT22;9071;48.220;14.480;2023-06-10T05:37:24;18.00;99.90
17891;DHT22;9071;48.220;14.480;2023-06-10T05:42:28;18.10;99.90
17891;DHT22;9071;48.220;14.480;2023-06-10T05:47:30;18.40;99.90
17891;DHT22;9071;48.220;14.480;2023-06-10T05:52:32;18.30;99.90
17891;DHT22;9071;48.220;14.480;2023-06-10T05:57:36;18.40;99.90
17891;DHT22;9071;48.220;14.480;2023-06-10T06:02:38;18.30;99.90
17891;DHT22;9071;48.220;14.480;2023-06-10T06:07:40;18.50;99.90
17891;DHT22;9071;48.220;14.480;2023-06-10T06:12:44;18.60;99.90
17891;DHT22;9071;48.220;14.480;2023-06-10T06:17:46;18.80;99.90
17891;DHT22;9071;48.220;14.480;2023-06-10T06:22:48;18.90;99.90
17891;DHT22;9071;48.220;14.480;2023-06-10T06:27:51;19.20;99.90
17891;DHT22;9071;48.220;14.480;2023-06-10T06:32:53;19.50;99.90
17891;DHT22;9071;48.220;14.480;2023-06-10T06:37:56;19.60;99.90
17891;DHT22;9071;48.220;14.480;2023-06-10T06:43:00;19.90;99.90
17891;DHT22;9071;48.220;14.480;2023-06-10T06:48:04;20.40;99.90
17891;DHT22;9071;48.220;14.480;2023-06-10T06:53:06;21.10;99.90
17891;DHT22;9071;48.220;14.480;2023-06-10T06:58:10;21.00;99.90
17891;DHT22;9071;48.220;14.480;2023-06-10T07:03:12;21.10;99.90
17891;DHT22;9071;48.220;14.480;2023-06-10T07:08:14;21.40;99.90
17891;DHT22;9071;48.220;14.480;2023-06-10T07:13:17;21.60;99.90
17891;DHT22;9071;48.220;14.480;2023-06-10T07:18:19;21.30;99.90
17891;DHT22;9071;48.220;14.480;2023-06-10T07:23:21;21.70;99.90
17891;DHT22;9071;48.220;14.480;2023-06-10T07:28:25;21.70;99.90
17891;DHT22;9071;48.220;14.480;2023-06-10T07:33:27;21.50;99.90
17891;DHT22;9071;48.220;14.480;2023-06-10T07:38:29;21.80;99.90
17891;DHT22;9071;48.220;14.480;2023-06-10T07:43:33;22.10;99.90
17891;DHT22;9071;48.220;14.480;2023-06-10T07:48:35;22.80;99.90
17891;DHT22;9071;48.220;14.480;2023-06-10T07:53:37;23.20;99.90
17891;DHT22;9071;48.220;14.480;2023-06-10T07:58:40;23.40;99.90
17891;DHT22;9071;48.220;14.480;2023-06-10T08:03:42;25.20;99.90
17891;DHT22;9071;48.220;14.480;2023-06-10T08:08:45;26.40;99.90
17891;DHT22;9071;48.220;14.480;2023-06-10T08:13:48;25.00;99.90
17891;DHT22;9071;48.220;14.480;2023-06-10T08:18:50;25.40;99.90
17891;DHT22;9071;48.220;14.480;2023-06-10T08:23:53;25.20;99.90
17891;DHT22;9071;48.220;14.480;2023-06-10T08:28:57;25.50;99.90
17891;DHT22;9071;48.220;14.480;2023-06-10T08:33:59;25.50;99.90
17891;DHT22;9071;48.220;14.480;2023-06-10T08:39:01;25.40;99.90
17891;DHT22;9071;48.220;14.480;2023-06-10T08:44:10;24.80;99.90
17891;DHT22;9071;48.220;14.480;2023-06-10T08:49:18;24.70;99.90
17891;DHT22;9071;48.220;14.480;2023-06-10T08:54:22;24.90;99.90
17891;DHT22;9071;48.220;14.480;2023-06-10T08:59:29;24.20;99.90
17891;DHT22;9071;48.220;14.480;2023-06-10T09:04:31;24.40;99.90
17891;DHT22;9071;48.220;14.480;2023-06-10T09:09:35;24.60;99.90
17891;DHT22;9071;48.220;14.480;2023-06-10T09:14:39;23.90;99.90
17891;DHT22;9071;48.220;14.480;2023-06-10T09:19:41;24.10;99.90
17891;DHT22;9071;48.220;14.480;2023-06-10T09:24:44;24.00;99.90
17891;DHT22;9071;48.220;14.480;2023-06-10T09:29:51;24.50;99.90
17891;DHT22;9071;48.220;14.480;2023-06-10T09:34:54;24.60;99.90
17891;DHT22;9071;48.220;14.480;2023-06-10T09:40:02;24.30;99.90
17891;DHT22;9071;48.220;14.480;2023-06-10T09:45:07;24.70;99.90
17891;DHT22;9071;48.220;14.480;2023-06-10T09:50:10;25.00;99.90
17891;DHT22;9071;48.220;14.480;2023-06-10T09:55:12;25.50;99.90
17891;DHT22;9071;48.220;14.480;2023-06-10T10:00:16;26.10;99.90
17891;DHT22;9071;48.220;14.480;2023-06-10T10:05:19;26.30;99.90
17891;DHT22;9071;48.220;14.480;2023-06-10T10:10:22;27.00;99.90
17891;DHT22;9071;48.220;14.480;2023-06-10T10:15:29;27.30;99.90
17891;DHT22;9071;48.220;14.480;2023-06-10T10:20:34;26.90;99.90
17891;DHT22;9071;48.220;14.480;2023-06-10T10:25:40;27.00;99.90
17891;DHT22;9071;48.220;14.480;2023-06-10T10:30:49;26.80;99.90
17891;DHT22;9071;48.220;14.480;2023-06-10T10:35:53;25.80;99.90
17891;DHT22;9071;48.220;14.480;2023-06-10T10:40:56;26.10;99.90
17891;DHT22;9071;48.220;14.480;2023-06-10T10:46:03;26.00;99.90
17891;DHT22;9071;48.220;14.480;2023-06-10T10:51:09;25.40;99.90
17891;DHT22;9071;48.220;14.480;2023-06-10T10:56:13;25.20;99.90
17891;DHT22;9071;48.220;14.480;2023-06-10T11:01:17;24.30;99.90
17891;DHT22;9071;48.220;14.480;2023-06-10T11:06:19;23.10;99.90
17891;DHT22;9071;48.220;14.480;2023-06-10T11:11:23;23.00;99.90
17891;DHT22;9071;48.220;14.480;2023-06-10T11:16:28;23.40;99.90
17891;DHT22;9071;48.220;14.480;2023-06-10T11:21:30;23.90;99.90
17891;DHT22;9071;48.220;14.480;2023-06-10T11:26:32;24.20;99.90
17891;DHT22;9071;48.220;14.480;2023-06-10T11:31:49;24.80;99.90
17891;DHT22;9071;48.220;14.480;2023-06-10T11:36:51;25.40;99.90
17891;DHT22;9071;48.220;14.480;2023-06-10T11:41:54;25.50;99.90
17891;DHT22;9071;48.220;14.480;2023-06-10T11:46:58;25.50;99.90
17891;DHT22;9071;48.220;14.480;2023-06-10T11:52:00;25.30;99.90
17891;DHT22;9071;48.220;14.480;2023-06-10T11:57:03;24.90;99.90
17891;DHT22;9071;48.220;14.480;2023-06-10T12:02:15;24.40;99.90
17891;DHT22;9071;48.220;14.480;2023-06-10T12:07:17;24.70;99.90
17891;DHT22;9071;48.220;14.480;2023-06-10T12:12:20;24.70;99.90
17891;DHT22;9071;48.220;14.480;2023-06-10T12:17:34;24.70;99.90
17891;DHT22;9071;48.220;14.480;2023-06-10T12:22:38;24.00;99.90
17891;DHT22;9071;48.220;14.480;2023-06-10T12:27:50;22.20;99.90
17891;DHT22;9071;48.220;14.480;2023-06-10T12:32:53;21.30;99.90
17891;DHT22;9071;48.220;14.480;2023-06-10T12:37:57;20.30;99.90
17891;DHT22;9071;48.220;14.480;2023-06-10T12:43:00;19.80;99.90
17891;DHT22;9071;48.220;14.480;2023-06-10T12:48:08;19.60;99.90
17891;DHT22;9071;48.220;14.480;2023-06-10T12:53:11;19.60;99.90
17891;DHT22;9071;48.220;14.480;2023-06-10T12:58:13;19.70;99.90
17891;DHT22;9071;48.220;14.480;2023-06-10T13:03:16;19.80;99.90
17891;DHT22;9071;48.220;14.480;2023-06-10T13:08:19;19.90;99.90
17891;DHT22;9071;48.220;14.480;2023-06-10T13:13:20;20.10;99.90
17891;DHT22;9071;48.220;14.480;2023-06-10T13:18:24;20.20;99.90
17891;DHT22;9071;48.220;14.480;2023-06-10T13:23:26;20.30;99.90
17891;DHT22;9071;48.220;14.480;2023-06-10T13:28:29;20.40;99.90
17891;DHT22;9071;48.220;14.480;2023-06-10T13:33:32;20.30;99.90
17891;DHT22;9071;48.220;14.480;2023-06-10T13:38:35;20.10;99.90
17891;DHT22;9071;48.220;14.480;2023-06-10T13:43:36;19.90;99.90
17891;DHT22;9071;48.220;14.480;2023-06-10T13:48:40;19.70;99.90
17891;DHT22;9071;48.220;14.480;2023-06-10T13:53:42;19.60;99.90
17891;DHT22;9071;48.220;14.480;2023-06-10T13:58:46;19.50;99.90
17891;DHT22;9071;48.220;14.480;2023-06-10T14:03:49;19.50;99.90
17891;DHT22;9071;48.220;14.480;2023-06-10T14:08:52;19.60;99.90
17891;DHT22;9071;48.220;14.480;2023-06-10T14:13:55;19.70;99.90
17891;DHT22;9071;48.220;14.480;2023-06-10T14:18:59;19.80;99.90
17891;DHT22;9071;48.220;14.480;2023-06-10T14:24:01;19.90;99.90
17891;DHT22;9071;48.220;14.480;2023-06-10T14:29:03;20.00;99.90
17891;DHT22;9071;48.220;14.480;2023-06-10T14:34:07;20.20;99.90
17891;DHT22;9071;48.220;14.480;2023-06-10T14:39:09;20.50;99.90
17891;DHT22;9071;48.220;14.480;2023-06-10T14:44:11;20.60;99.90
17891;DHT22;9071;48.220;14.480;2023-06-10T14:49:15;20.80;99.90
17891;DHT22;9071;48.220;14.480;2023-06-10T14:54:17;21.00;99.90
17891;DHT22;9071;48.220;14.480;2023-06-10T14:59:19;21.00;99.90
17891;DHT22;9071;48.220;14.480;2023-06-10T15:04:22;21.00;99.90
17891;DHT22;9071;48.220;14.480;2023-06-10T15:09:24;21.20;99.90
17891;DHT22;9071;48.220;14.480;2023-06-10T15:14:26;21.40;99.90
17891;DHT22;9071;48.220;14.480;2023-06-10T15:19:29;21.30;99.90
17891;DHT22;9071;48.220;14.480;2023-06-10T15:24:31;21.30;99.90
17891;DHT22;9071;48.220;14.480;2023-06-10T15:29:33;21.40;99.90
17891;DHT22;9071;48.220;14.480;2023-06-10T15:34:37;21.40;99.90
17891;DHT22;9071;48.220;14.480;2023-06-10T15:39:39;21.30;99.90
17891;DHT22;9071;48.220;14.480;2023-06-10T15:44:41;21.10;99.90
17891;DHT22;9071;48.220;14.480;2023-06-10T15:49:44;20.90;99.90
17891;DHT22;9071;48.220;14.480;2023-06-10T15:54:46;20.80;99.90
17891;DHT22;9071;48.220;14.480;2023-06-10T15:59:48;20.80;99.90
17891;DHT22;9071;48.220;14.480;2023-06-10T16:04:52;20.80;99.90
17891;DHT22;9071;48.220;14.480;2023-06-10T16:09:54;20.70;99.90
17891;DHT22;9071;48.220;14.480;2023-06-10T16:14:56;20.80;99.90
17891;DHT22;9071;48.220;14.480;2023-06-10T16:19:59;20.70;99.90
17891;DHT22;9071;48.220;14.480;2023-06-10T16:25:02;20.60;99.90
17891;DHT22;9071;48.220;14.480;2023-06-10T16:30:05;20.60;99.90
17891;DHT22;9071;48.220;14.480;2023-06-10T16:35:08;20.50;99.90
17891;DHT22;9071;48.220;14.480;2023-06-10T16:40:11;20.50;99.90
17891;DHT22;9071;48.220;14.480;2023-06-10T16:45:13;20.50;99.90
17891;DHT22;9071;48.220;14.480;2023-06-10T16:50:17;20.60;99.90
17891;DHT22;9071;48.220;14.480;2023-06-10T16:55:19;20.60;99.90
17891;DHT22;9071;48.220;14.480;2023-06-10T17:00:21;20.60;99.90
17891;DHT22;9071;48.220;14.480;2023-06-10T17:05:24;20.60;99.90
17891;DHT22;9071;48.220;14.480;2023-06-10T17:10:26;20.50;99.90
17891;DHT22;9071;48.220;14.480;2023-06-10T17:15:28;20.60;99.90
17891;DHT22;9071;48.220;14.480;2023-06-10T17:20:31;20.40;99.90
17891;DHT22;9071;48.220;14.480;2023-06-10T17:25:33;20.30;99.90
17891;DHT22;9071;48.220;14.480;2023-06-10T17:30:37;20.20;99.90
17891;DHT22;9071;48.220;14.480;2023-06-10T17:35:40;20.10;99.90
17891;DHT22;9071;48.220;14.480;2023-06-10T17:40:42;20.10;99.90
17891;DHT22;9071;48.220;14.480;2023-06-10T17:45:44;20.00;99.90
17891;DHT22;9071;48.220;14.480;2023-06-10T17:50:48;19.90;99.90
17891;DHT22;9071;48.220;14.480;2023-06-10T17:55:50;19.90;99.90
17891;DHT22;9071;48.220;14.480;2023-06-10T18:00:53;19.80;99.90
17891;DHT22;9071;48.220;14.480;2023-06-10T18:05:56;19.80;99.90
17891;DHT22;9071;48.220;14.480;2023-06-10T18:10:59;19.70;99.90
17891;DHT22;9071;48.220;14.480;2023-06-10T18:16:02;19.60;99.90
17891;DHT22;9071;48.220;14.480;2023-06-10T18:21:06;19.50;99.90
17891;DHT22;9071;48.220;14.480;2023-06-10T18:26:09;19.50;99.90
17891;DHT22;9071;48.220;14.480;2023-06-10T18:31:11;19.40;99.90
17891;DHT22;9071;48.220;14.480;2023-06-10T18:36:15;19.40;99.90
17891;DHT22;9071;48.220;14.480;2023-06-10T18:41:17;19.30;99.90
17891;DHT22;9071;48.220;14.480;2023-06-10T18:46:19;19.30;99.90
17891;DHT22;9071;48.220;14.480;2023-06-10T18:51:22;19.20;99.90
17891;DHT22;9071;48.220;14.480;2023-06-10T18:56:24;19.10;99.90
17891;DHT22;9071;48.220;14.480;2023-06-10T19:01:27;18.90;99.90
17891;DHT22;9071;48.220;14.480;2023-06-10T19:06:30;18.80;99.90
17891;DHT22;9071;48.220;14.480;2023-06-10T19:11:33;18.80;99.90
17891;DHT22;9071;48.220;14.480;2023-06-10T19:16:35;18.80;99.90
17891;DHT22;9071;48.220;14.480;2023-06-10T19:21:38;18.60;99.90
17891;DHT22;9071;48.220;14.480;2023-06-10T19:26:41;18.60;99.90
17891;DHT22;9071;48.220;14.480;2023-06-10T19:31:42;18.60;99.90
17891;DHT22;9071;48.220;14.480;2023-06-10T19:36:46;18.50;99.90
17891;DHT22;9071;48.220;14.480;2023-06-10T19:41:48;18.50;99.90
17891;DHT22;9071;48.220;14.480;2023-06-10T19:46:50;18.40;99.90
17891;DHT22;9071;48.220;14.480;2023-06-10T19:51:53;18.30;99.90
17891;DHT22;9071;48.220;14.480;2023-06-10T19:56:55;18.20;99.90
17891;DHT22;9071;48.220;14.480;2023-06-10T20:01:57;18.10;99.90
17891;DHT22;9071;48.220;14.480;2023-06-10T20:07:01;18.10;99.90
17891;DHT22;9071;48.220;14.480;2023-06-10T20:12:03;18.00;99.90
17891;DHT22;9071;48.220;14.480;2023-06-10T20:17:06;17.90;99.90
17891;DHT22;9071;48.220;14.480;2023-06-10T20:22:09;17.70;99.90
17891;DHT22;9071;48.220;14.480;2023-06-10T20:27:11;17.50;99.90
17891;DHT22;9071;48.220;14.480;2023-06-10T20:32:13;17.40;99.90
17891;DHT22;9071;48.220;14.480;2023-06-10T20:37:17;17.30;99.90
17891;DHT22;9071;48.220;14.480;2023-06-10T20:42:19;17.10;99.90
17891;DHT22;9071;48.220;14.480;2023-06-10T20:47:21;17.00;99.90
17891;DHT22;9071;48.220;14.480;2023-06-10T20:52:24;16.90;99.90
17891;DHT22;9071;48.220;14.480;2023-06-10T20:57:26;16.80;99.90
17891;DHT22;9071;48.220;14.480;2023-06-10T21:02:28;16.80;99.90
17891;DHT22;9071;48.220;14.480;2023-06-10T21:07:32;16.90;99.90
17891;DHT22;9071;48.220;14.480;2023-06-10T21:12:34;17.00;99.90
17891;DHT22;9071;48.220;14.480;2023-06-10T21:17:36;17.00;99.90
17891;DHT22;9071;48.220;14.480;2023-06-10T21:22:40;17.00;99.90
17891;DHT22;9071;48.220;14.480;2023-06-10T21:27:42;17.10;99.90
17891;DHT22;9071;48.220;14.480;2023-06-10T21:32:44;17.10;99.90
17891;DHT22;9071;48.220;14.480;2023-06-10T21:37:49;17.00;99.90
17891;DHT22;9071;48.220;14.480;2023-06-10T21:42:51;17.00;99.90
17891;DHT22;9071;48.220;14.480;2023-06-10T21:47:53;17.10;99.90
17891;DHT22;9071;48.220;14.480;2023-06-10T21:52:56;17.10;99.90
17891;DHT22;9071;48.220;14.480;2023-06-10T21:57:58;17.00;99.90
17891;DHT22;9071;48.220;14.480;2023-06-10T22:03:00;16.90;99.90
17891;DHT22;9071;48.220;14.480;2023-06-10T22:08:04;16.90;99.90
17891;DHT22;9071;48.220;14.480;2023-06-10T22:13:06;16.80;99.90
17891;DHT22;9071;48.220;14.480;2023-06-10T22:18:08;16.80;99.90
17891;DHT22;9071;48.220;14.480;2023-06-10T22:23:18;16.80;99.90
17891;DHT22;9071;48.220;14.480;2023-06-10T22:28:20;16.80;99.90
17891;DHT22;9071;48.220;14.480;2023-06-10T22:33:22;16.70;99.90
17891;DHT22;9071;48.220;14.480;2023-06-10T22:38:25;16.60;99.90
17891;DHT22;9071;48.220;14.480;2023-06-10T22:43:27;16.60;99.90
17891;DHT22;9071;48.220;14.480;2023-06-10T22:48:30;16.50;99.90
17891;DHT22;9071;48.220;14.480;2023-06-10T22:53:33;16.40;99.90
17891;DHT22;9071;48.220;14.480;2023-06-10T22:58:35;16.40;99.90
17891;DHT22;9071;48.220;14.480;2023-06-10T23:03:37;16.40;99.90
17891;DHT22;9071;48.220;14.480;2023-06-10T23:08:41;16.30;99.90
17891;DHT22;9071;48.220;14.480;2023-06-10T23:13:43;16.30;99.90
17891;DHT22;9071;48.220;14.480;2023-06-10T23:18:45;16.20;99.90
17891;DHT22;9071;48.220;14.480;2023-06-10T23:23:48;16.10;99.90
17891;DHT22;9071;48.220;14.480;2023-06-10T23:28:52;16.10;99.90
17891;DHT22;9071;48.220;14.480;2023-06-10T23:33:54;16.10;99.90
17891;DHT22;9071;48.220;14.480;2023-06-10T23:39:00;16.00;99.90
17891;DHT22;9071;48.220;14.480;2023-06-10T23:44:02;16.00;99.90
17891;DHT22;9071;48.220;14.480;2023-06-10T23:49:04;16.00;99.90
17891;DHT22;9071;48.220;14.480;2023-06-10T23:54:08;15.90;99.90
17891;DHT22;9071;48.220;14.480;2023-06-10T23:59:13;15.80;99.90
